sensor_id;sensor_type;location;lat;lon;timestamp;P1;durP1;ratioP1;P2;durP2;ratioP2
69419;SDS011;56612;52.030;113.524;2023-05-16T00:00:02;22.60;;;8.25;;
69419;SDS011;56612;52.030;113.524;2023-05-16T00:03:09;19.45;;;7.32;;
69419;SDS011;56612;52.030;113.524;2023-05-16T00:06:14;17.90;;;7.20;;
69419;SDS011;56612;52.030;113.524;2023-05-16T00:09:19;17.60;;;6.97;;
69419;SDS011;56612;52.030;113.524;2023-05-16T00:12:23;18.48;;;5.70;;
69419;SDS011;56612;52.030;113.524;2023-05-16T00:15:27;13.07;;;5.05;;
69419;SDS011;56612;52.030;113.524;2023-05-16T00:18:32;13.23;;;4.30;;
69419;SDS011;56612;52.030;113.524;2023-05-16T00:21:35;15.63;;;4.37;;
69419;SDS011;56612;52.030;113.524;2023-05-16T00:24:39;13.53;;;5.00;;
69419;SDS011;56612;52.030;113.524;2023-05-16T00:27:44;13.15;;;4.95;;
69419;SDS011;56612;52.030;113.524;2023-05-16T00:30:49;13.80;;;4.97;;
69419;SDS011;56612;52.030;113.524;2023-05-16T00:33:53;11.00;;;4.72;;
69419;SDS011;56612;52.030;113.524;2023-05-16T00:36:58;12.77;;;4.63;;
69419;SDS011;56612;52.030;113.524;2023-05-16T00:40:02;13.73;;;4.30;;
69419;SDS011;56612;52.030;113.524;2023-05-16T00:43:06;11.82;;;3.47;;
69419;SDS011;56612;52.030;113.524;2023-05-16T00:46:11;11.23;;;4.50;;
69419;SDS011;56612;52.030;113.524;2023-05-16T00:49:14;11.07;;;3.78;;
69419;SDS011;56612;52.030;113.524;2023-05-16T00:52:19;12.27;;;3.77;;
69419;SDS011;56612;52.030;113.524;2023-05-16T00:55:23;14.50;;;3.83;;
69419;SDS011;56612;52.030;113.524;2023-05-16T00:58:29;12.60;;;4.05;;
69419;SDS011;56612;52.030;113.524;2023-05-16T01:01:34;13.63;;;4.38;;
69419;SDS011;56612;52.030;113.524;2023-05-16T01:04:40;11.20;;;5.15;;
69419;SDS011;56612;52.030;113.524;2023-05-16T01:07:45;12.70;;;4.27;;
69419;SDS011;56612;52.030;113.524;2023-05-16T01:11:33;9.50;;;3.63;;
69419;SDS011;56612;52.030;113.524;2023-05-16T01:21:23;11.45;;;2.70;;
69419;SDS011;56612;52.030;113.524;2023-05-16T01:28:04;10.67;;;2.60;;
69419;SDS011;56612;52.030;113.524;2023-05-16T01:31:10;13.52;;;2.80;;
69419;SDS011;56612;52.030;113.524;2023-05-16T01:34:14;10.15;;;2.92;;
69419;SDS011;56612;52.030;113.524;2023-05-16T01:37:27;12.65;;;3.30;;
69419;SDS011;56612;52.030;113.524;2023-05-16T01:44:22;8.77;;;2.63;;
69419;SDS011;56612;52.030;113.524;2023-05-16T01:47:56;9.93;;;2.92;;
69419;SDS011;56612;52.030;113.524;2023-05-16T01:51:07;13.38;;;2.50;;
69419;SDS011;56612;52.030;113.524;2023-05-16T01:54:12;10.68;;;3.15;;
69419;SDS011;56612;52.030;113.524;2023-05-16T01:57:20;14.40;;;2.90;;
69419;SDS011;56612;52.030;113.524;2023-05-16T02:00:28;23.40;;;3.93;;
69419;SDS011;56612;52.030;113.524;2023-05-16T02:03:33;14.00;;;3.28;;
69419;SDS011;56612;52.030;113.524;2023-05-16T02:06:37;13.15;;;2.90;;
69419;SDS011;56612;52.030;113.524;2023-05-16T02:09:41;9.77;;;2.47;;
69419;SDS011;56612;52.030;113.524;2023-05-16T02:12:44;12.43;;;2.63;;
69419;SDS011;56612;52.030;113.524;2023-05-16T02:15:48;12.70;;;3.23;;
69419;SDS011;56612;52.030;113.524;2023-05-16T02:18:51;10.20;;;2.90;;
69419;SDS011;56612;52.030;113.524;2023-05-16T02:21:54;6.75;;;2.40;;
69419;SDS011;56612;52.030;113.524;2023-05-16T02:24:59;6.57;;;2.42;;
69419;SDS011;56612;52.030;113.524;2023-05-16T02:28:03;5.40;;;2.40;;
69419;SDS011;56612;52.030;113.524;2023-05-16T02:31:06;7.23;;;2.50;;
69419;SDS011;56612;52.030;113.524;2023-05-16T02:34:10;9.20;;;3.15;;
69419;SDS011;56612;52.030;113.524;2023-05-16T02:37:13;7.28;;;2.55;;
69419;SDS011;56612;52.030;113.524;2023-05-16T02:40:16;9.65;;;2.85;;
69419;SDS011;56612;52.030;113.524;2023-05-16T02:43:20;7.63;;;2.20;;
69419;SDS011;56612;52.030;113.524;2023-05-16T02:46:28;9.40;;;2.97;;
69419;SDS011;56612;52.030;113.524;2023-05-16T02:49:32;11.65;;;2.90;;
69419;SDS011;56612;52.030;113.524;2023-05-16T02:52:36;7.88;;;2.17;;
69419;SDS011;56612;52.030;113.524;2023-05-16T02:55:40;8.80;;;2.08;;
69419;SDS011;56612;52.030;113.524;2023-05-16T02:58:46;8.63;;;2.00;;
69419;SDS011;56612;52.030;113.524;2023-05-16T03:01:50;8.43;;;2.00;;
69419;SDS011;56612;52.030;113.524;2023-05-16T03:04:54;8.98;;;1.60;;
69419;SDS011;56612;52.030;113.524;2023-05-16T03:07:57;10.52;;;2.15;;
69419;SDS011;56612;52.030;113.524;2023-05-16T03:11:01;7.10;;;2.72;;
69419;SDS011;56612;52.030;113.524;2023-05-16T03:14:05;10.33;;;2.10;;
69419;SDS011;56612;52.030;113.524;2023-05-16T03:17:08;11.27;;;2.67;;
69419;SDS011;56612;52.030;113.524;2023-05-16T03:20:12;6.07;;;2.15;;
69419;SDS011;56612;52.030;113.524;2023-05-16T03:23:16;5.13;;;1.95;;
69419;SDS011;56612;52.030;113.524;2023-05-16T03:26:20;12.75;;;2.53;;
69419;SDS011;56612;52.030;113.524;2023-05-16T03:29:25;7.17;;;2.10;;
69419;SDS011;56612;52.030;113.524;2023-05-16T03:32:28;9.20;;;2.33;;
69419;SDS011;56612;52.030;113.524;2023-05-16T03:35:32;7.32;;;1.92;;
69419;SDS011;56612;52.030;113.524;2023-05-16T03:38:36;7.18;;;1.98;;
69419;SDS011;56612;52.030;113.524;2023-05-16T03:41:39;5.15;;;1.58;;
69419;SDS011;56612;52.030;113.524;2023-05-16T03:44:42;6.67;;;1.90;;
69419;SDS011;56612;52.030;113.524;2023-05-16T03:47:47;7.67;;;1.67;;
69419;SDS011;56612;52.030;113.524;2023-05-16T03:50:52;6.10;;;2.50;;
69419;SDS011;56612;52.030;113.524;2023-05-16T03:53:56;5.47;;;1.83;;
69419;SDS011;56612;52.030;113.524;2023-05-16T03:57:00;5.32;;;2.20;;
69419;SDS011;56612;52.030;113.524;2023-05-16T04:00:03;4.63;;;1.70;;
69419;SDS011;56612;52.030;113.524;2023-05-16T04:03:12;5.07;;;1.80;;
69419;SDS011;56612;52.030;113.524;2023-05-16T04:06:17;4.55;;;1.48;;
69419;SDS011;56612;52.030;113.524;2023-05-16T04:09:21;6.13;;;1.70;;
69419;SDS011;56612;52.030;113.524;2023-05-16T04:12:24;3.00;;;1.50;;
69419;SDS011;56612;52.030;113.524;2023-05-16T04:15:28;2.93;;;1.40;;
69419;SDS011;56612;52.030;113.524;2023-05-16T04:18:32;2.73;;;1.30;;
69419;SDS011;56612;52.030;113.524;2023-05-16T04:21:35;4.78;;;2.20;;
69419;SDS011;56612;52.030;113.524;2023-05-16T04:24:39;4.13;;;1.52;;
69419;SDS011;56612;52.030;113.524;2023-05-16T04:27:42;2.80;;;1.50;;
69419;SDS011;56612;52.030;113.524;2023-05-16T04:30:45;4.63;;;1.80;;
69419;SDS011;56612;52.030;113.524;2023-05-16T04:33:50;3.77;;;1.43;;
69419;SDS011;56612;52.030;113.524;2023-05-16T04:36:53;3.78;;;1.30;;
69419;SDS011;56612;52.030;113.524;2023-05-16T04:39:58;5.93;;;1.40;;
69419;SDS011;56612;52.030;113.524;2023-05-16T04:43:01;5.10;;;2.40;;
69419;SDS011;56612;52.030;113.524;2023-05-16T04:46:05;5.00;;;1.50;;
69419;SDS011;56612;52.030;113.524;2023-05-16T04:49:12;2.80;;;1.50;;
69419;SDS011;56612;52.030;113.524;2023-05-16T04:52:16;3.25;;;1.48;;
69419;SDS011;56612;52.030;113.524;2023-05-16T04:55:20;3.72;;;1.10;;
69419;SDS011;56612;52.030;113.524;2023-05-16T04:58:23;4.35;;;2.40;;
69419;SDS011;56612;52.030;113.524;2023-05-16T05:01:27;6.27;;;1.70;;
69419;SDS011;56612;52.030;113.524;2023-05-16T05:04:30;4.63;;;1.60;;
69419;SDS011;56612;52.030;113.524;2023-05-16T05:07:34;3.13;;;1.60;;
69419;SDS011;56612;52.030;113.524;2023-05-16T05:10:37;3.60;;;1.40;;
69419;SDS011;56612;52.030;113.524;2023-05-16T05:13:41;2.65;;;1.20;;
69419;SDS011;56612;52.030;113.524;2023-05-16T05:16:44;3.60;;;1.40;;
69419;SDS011;56612;52.030;113.524;2023-05-16T05:19:48;4.70;;;1.77;;
69419;SDS011;56612;52.030;113.524;2023-05-16T05:22:51;4.35;;;1.80;;
69419;SDS011;56612;52.030;113.524;2023-05-16T05:25:55;6.55;;;2.05;;
69419;SDS011;56612;52.030;113.524;2023-05-16T05:28:59;3.67;;;1.70;;
69419;SDS011;56612;52.030;113.524;2023-05-16T05:32:07;6.27;;;1.90;;
69419;SDS011;56612;52.030;113.524;2023-05-16T05:35:10;4.10;;;1.97;;
69419;SDS011;56612;52.030;113.524;2023-05-16T05:38:14;4.90;;;1.90;;
69419;SDS011;56612;52.030;113.524;2023-05-16T05:41:17;5.70;;;2.50;;
69419;SDS011;56612;52.030;113.524;2023-05-16T05:44:20;13.40;;;1.77;;
69419;SDS011;56612;52.030;113.524;2023-05-16T05:47:23;6.87;;;2.27;;
69419;SDS011;56612;52.030;113.524;2023-05-16T05:50:28;5.30;;;2.30;;
69419;SDS011;56612;52.030;113.524;2023-05-16T05:53:33;6.10;;;2.00;;
69419;SDS011;56612;52.030;113.524;2023-05-16T05:56:37;6.70;;;2.05;;
69419;SDS011;56612;52.030;113.524;2023-05-16T05:59:40;5.97;;;2.85;;
69419;SDS011;56612;52.030;113.524;2023-05-16T06:02:43;6.90;;;2.60;;
69419;SDS011;56612;52.030;113.524;2023-05-16T06:05:47;10.80;;;2.60;;
69419;SDS011;56612;52.030;113.524;2023-05-16T06:08:51;9.32;;;2.90;;
69419;SDS011;56612;52.030;113.524;2023-05-16T06:11:53;6.70;;;2.40;;
69419;SDS011;56612;52.030;113.524;2023-05-16T06:14:58;7.05;;;2.40;;
69419;SDS011;56612;52.030;113.524;2023-05-16T06:18:01;4.37;;;2.80;;
69419;SDS011;56612;52.030;113.524;2023-05-16T06:21:04;4.00;;;2.57;;
69419;SDS011;56612;52.030;113.524;2023-05-16T06:24:09;5.20;;;2.72;;
69419;SDS011;56612;52.030;113.524;2023-05-16T06:27:14;4.13;;;2.20;;
69419;SDS011;56612;52.030;113.524;2023-05-16T06:30:18;8.02;;;2.78;;
69419;SDS011;56612;52.030;113.524;2023-05-16T06:33:22;9.43;;;3.30;;
69419;SDS011;56612;52.030;113.524;2023-05-16T06:36:26;4.90;;;2.50;;
69419;SDS011;56612;52.030;113.524;2023-05-16T06:39:30;3.38;;;2.33;;
69419;SDS011;56612;52.030;113.524;2023-05-16T06:42:34;7.72;;;2.60;;
69419;SDS011;56612;52.030;113.524;2023-05-16T06:45:38;3.95;;;2.33;;
69419;SDS011;56612;52.030;113.524;2023-05-16T06:48:42;5.47;;;2.43;;
69419;SDS011;56612;52.030;113.524;2023-05-16T06:51:47;2.97;;;2.10;;
69419;SDS011;56612;52.030;113.524;2023-05-16T06:54:51;5.38;;;2.38;;
69419;SDS011;56612;52.030;113.524;2023-05-16T06:57:55;3.53;;;2.20;;
69419;SDS011;56612;52.030;113.524;2023-05-16T07:00:58;8.70;;;3.40;;
69419;SDS011;56612;52.030;113.524;2023-05-16T07:04:02;6.30;;;3.03;;
69419;SDS011;56612;52.030;113.524;2023-05-16T07:07:06;5.30;;;2.93;;
69419;SDS011;56612;52.030;113.524;2023-05-16T07:10:11;3.20;;;2.45;;
69419;SDS011;56612;52.030;113.524;2023-05-16T07:13:15;7.32;;;2.50;;
69419;SDS011;56612;52.030;113.524;2023-05-16T07:16:18;4.53;;;2.80;;
69419;SDS011;56612;52.030;113.524;2023-05-16T07:19:22;4.63;;;2.90;;
69419;SDS011;56612;52.030;113.524;2023-05-16T07:22:26;5.80;;;2.90;;
69419;SDS011;56612;52.030;113.524;2023-05-16T07:25:30;4.53;;;2.60;;
69419;SDS011;56612;52.030;113.524;2023-05-16T07:28:34;4.65;;;2.92;;
69419;SDS011;56612;52.030;113.524;2023-05-16T07:31:38;4.10;;;3.20;;
69419;SDS011;56612;52.030;113.524;2023-05-16T07:34:42;4.27;;;2.60;;
69419;SDS011;56612;52.030;113.524;2023-05-16T07:37:46;6.17;;;2.50;;
69419;SDS011;56612;52.030;113.524;2023-05-16T07:40:50;4.43;;;3.20;;
69419;SDS011;56612;52.030;113.524;2023-05-16T07:43:54;4.13;;;2.67;;
69419;SDS011;56612;52.030;113.524;2023-05-16T07:46:58;5.20;;;3.40;;
69419;SDS011;56612;52.030;113.524;2023-05-16T07:50:02;4.97;;;2.80;;
69419;SDS011;56612;52.030;113.524;2023-05-16T07:53:06;4.07;;;2.90;;
69419;SDS011;56612;52.030;113.524;2023-05-16T07:56:10;6.32;;;3.00;;
69419;SDS011;56612;52.030;113.524;2023-05-16T07:59:14;6.03;;;3.05;;
69419;SDS011;56612;52.030;113.524;2023-05-16T08:02:20;4.70;;;3.10;;
69419;SDS011;56612;52.030;113.524;2023-05-16T08:05:27;8.70;;;4.00;;
69419;SDS011;56612;52.030;113.524;2023-05-16T08:08:32;6.03;;;3.07;;
69419;SDS011;56612;52.030;113.524;2023-05-16T08:11:36;6.93;;;2.85;;
69419;SDS011;56612;52.030;113.524;2023-05-16T08:14:42;6.75;;;3.00;;
69419;SDS011;56612;52.030;113.524;2023-05-16T08:17:45;4.20;;;2.90;;
69419;SDS011;56612;52.030;113.524;2023-05-16T08:20:52;5.77;;;2.87;;
69419;SDS011;56612;52.030;113.524;2023-05-16T08:23:56;3.67;;;2.40;;
69419;SDS011;56612;52.030;113.524;2023-05-16T08:26:59;4.43;;;3.00;;
69419;SDS011;56612;52.030;113.524;2023-05-16T08:30:03;7.38;;;2.03;;
69419;SDS011;56612;52.030;113.524;2023-05-16T08:33:07;6.10;;;2.10;;
69419;SDS011;56612;52.030;113.524;2023-05-16T08:36:11;6.50;;;2.30;;
69419;SDS011;56612;52.030;113.524;2023-05-16T08:39:18;5.20;;;1.93;;
69419;SDS011;56612;52.030;113.524;2023-05-16T08:42:21;7.40;;;1.88;;
69419;SDS011;56612;52.030;113.524;2023-05-16T08:45:25;3.65;;;1.63;;
69419;SDS011;56612;52.030;113.524;2023-05-16T08:48:28;6.53;;;1.95;;
69419;SDS011;56612;52.030;113.524;2023-05-16T08:51:34;5.07;;;2.40;;
69419;SDS011;56612;52.030;113.524;2023-05-16T08:54:40;4.13;;;2.27;;
69419;SDS011;56612;52.030;113.524;2023-05-16T08:57:44;6.75;;;2.47;;
69419;SDS011;56612;52.030;113.524;2023-05-16T09:00:48;7.22;;;2.60;;
69419;SDS011;56612;52.030;113.524;2023-05-16T09:03:51;7.03;;;2.40;;
69419;SDS011;56612;52.030;113.524;2023-05-16T09:06:55;5.20;;;2.30;;
69419;SDS011;56612;52.030;113.524;2023-05-16T09:09:58;6.87;;;2.47;;
69419;SDS011;56612;52.030;113.524;2023-05-16T09:13:03;7.63;;;1.92;;
69419;SDS011;56612;52.030;113.524;2023-05-16T09:16:19;5.57;;;1.90;;
69419;SDS011;56612;52.030;113.524;2023-05-16T09:19:22;5.60;;;2.00;;
69419;SDS011;56612;52.030;113.524;2023-05-16T09:22:27;4.47;;;1.80;;
69419;SDS011;56612;52.030;113.524;2023-05-16T09:25:31;5.20;;;1.60;;
69419;SDS011;56612;52.030;113.524;2023-05-16T09:28:38;5.18;;;1.67;;
69419;SDS011;56612;52.030;113.524;2023-05-16T09:31:42;6.85;;;1.60;;
69419;SDS011;56612;52.030;113.524;2023-05-16T09:34:47;8.00;;;2.03;;
69419;SDS011;56612;52.030;113.524;2023-05-16T09:37:53;5.90;;;2.60;;
69419;SDS011;56612;52.030;113.524;2023-05-16T09:41:01;10.07;;;3.70;;
69419;SDS011;56612;52.030;113.524;2023-05-16T09:44:05;8.27;;;3.22;;
69419;SDS011;56612;52.030;113.524;2023-05-16T09:47:08;5.50;;;1.50;;
69419;SDS011;56612;52.030;113.524;2023-05-16T09:50:15;4.05;;;1.77;;
69419;SDS011;56612;52.030;113.524;2023-05-16T09:53:28;4.30;;;2.03;;
69419;SDS011;56612;52.030;113.524;2023-05-16T09:56:34;4.40;;;1.77;;
69419;SDS011;56612;52.030;113.524;2023-05-16T09:59:51;7.43;;;2.30;;
69419;SDS011;56612;52.030;113.524;2023-05-16T10:02:54;6.93;;;1.90;;
69419;SDS011;56612;52.030;113.524;2023-05-16T10:06:00;3.80;;;1.77;;
69419;SDS011;56612;52.030;113.524;2023-05-16T10:09:05;6.03;;;1.90;;
69419;SDS011;56612;52.030;113.524;2023-05-16T10:12:08;3.87;;;1.83;;
69419;SDS011;56612;52.030;113.524;2023-05-16T10:15:15;3.90;;;1.35;;
69419;SDS011;56612;52.030;113.524;2023-05-16T10:18:20;5.80;;;1.90;;
69419;SDS011;56612;52.030;113.524;2023-05-16T10:21:25;7.10;;;2.60;;
69419;SDS011;56612;52.030;113.524;2023-05-16T10:24:43;5.57;;;1.90;;
69419;SDS011;56612;52.030;113.524;2023-05-16T10:27:53;5.90;;;1.83;;
69419;SDS011;56612;52.030;113.524;2023-05-16T10:30:57;8.70;;;2.10;;
69419;SDS011;56612;52.030;113.524;2023-05-16T10:34:03;6.53;;;2.10;;
69419;SDS011;56612;52.030;113.524;2023-05-16T10:37:07;5.28;;;1.70;;
69419;SDS011;56612;52.030;113.524;2023-05-16T10:40:12;6.73;;;2.20;;
69419;SDS011;56612;52.030;113.524;2023-05-16T10:43:24;6.23;;;2.00;;
69419;SDS011;56612;52.030;113.524;2023-05-16T10:46:32;9.73;;;3.60;;
69419;SDS011;56612;52.030;113.524;2023-05-16T10:49:37;3.78;;;1.63;;
69419;SDS011;56612;52.030;113.524;2023-05-16T10:52:45;10.65;;;4.45;;
69419;SDS011;56612;52.030;113.524;2023-05-16T10:59:21;17.83;;;7.37;;
69419;SDS011;56612;52.030;113.524;2023-05-16T11:02:29;17.40;;;4.90;;
69419;SDS011;56612;52.030;113.524;2023-05-16T11:05:37;14.00;;;6.43;;
69419;SDS011;56612;52.030;113.524;2023-05-16T11:08:56;9.60;;;3.78;;
69419;SDS011;56612;52.030;113.524;2023-05-16T11:12:12;7.47;;;3.90;;
69419;SDS011;56612;52.030;113.524;2023-05-16T11:15:27;7.90;;;4.03;;
69419;SDS011;56612;52.030;113.524;2023-05-16T11:18:34;19.92;;;9.85;;
69419;SDS011;56612;52.030;113.524;2023-05-16T11:25:10;10.35;;;4.93;;
69419;SDS011;56612;52.030;113.524;2023-05-16T11:28:14;6.90;;;3.30;;
69419;SDS011;56612;52.030;113.524;2023-05-16T11:31:17;7.20;;;2.90;;
69419;SDS011;56612;52.030;113.524;2023-05-16T11:34:21;9.80;;;3.50;;
69419;SDS011;56612;52.030;113.524;2023-05-16T11:37:25;12.25;;;3.80;;
69419;SDS011;56612;52.030;113.524;2023-05-16T11:40:28;5.63;;;2.30;;
69419;SDS011;56612;52.030;113.524;2023-05-16T11:43:39;17.30;;;2.87;;
69419;SDS011;56612;52.030;113.524;2023-05-16T11:46:43;9.13;;;2.63;;
69419;SDS011;56612;52.030;113.524;2023-05-16T11:49:48;6.57;;;2.40;;
69419;SDS011;56612;52.030;113.524;2023-05-16T11:52:52;5.65;;;2.33;;
69419;SDS011;56612;52.030;113.524;2023-05-16T11:55:58;8.88;;;2.17;;
69419;SDS011;56612;52.030;113.524;2023-05-16T11:59:03;6.47;;;1.93;;
69419;SDS011;56612;52.030;113.524;2023-05-16T12:02:07;9.70;;;2.10;;
69419;SDS011;56612;52.030;113.524;2023-05-16T12:05:11;6.40;;;1.98;;
69419;SDS011;56612;52.030;113.524;2023-05-16T12:08:17;7.50;;;2.10;;
69419;SDS011;56612;52.030;113.524;2023-05-16T12:11:21;9.43;;;3.22;;
69419;SDS011;56612;52.030;113.524;2023-05-16T12:14:25;6.33;;;2.57;;
69419;SDS011;56612;52.030;113.524;2023-05-16T12:17:29;6.33;;;2.43;;
69419;SDS011;56612;52.030;113.524;2023-05-16T12:20:32;9.32;;;3.40;;
69419;SDS011;56612;52.030;113.524;2023-05-16T12:23:37;13.38;;;5.13;;
69419;SDS011;56612;52.030;113.524;2023-05-16T12:26:41;13.75;;;5.90;;
69419;SDS011;56612;52.030;113.524;2023-05-16T12:29:46;12.33;;;3.93;;
69419;SDS011;56612;52.030;113.524;2023-05-16T12:33:06;11.17;;;3.10;;
69419;SDS011;56612;52.030;113.524;2023-05-16T12:36:12;17.92;;;6.78;;
69419;SDS011;56612;52.030;113.524;2023-05-16T12:39:17;16.55;;;6.72;;
69419;SDS011;56612;52.030;113.524;2023-05-16T12:42:22;26.45;;;9.43;;
69419;SDS011;56612;52.030;113.524;2023-05-16T12:45:25;9.87;;;3.93;;
69419;SDS011;56612;52.030;113.524;2023-05-16T12:48:33;9.27;;;2.97;;
69419;SDS011;56612;52.030;113.524;2023-05-16T12:51:47;8.82;;;3.20;;
69419;SDS011;56612;52.030;113.524;2023-05-16T12:54:52;8.30;;;3.40;;
69419;SDS011;56612;52.030;113.524;2023-05-16T12:57:55;12.32;;;3.78;;
69419;SDS011;56612;52.030;113.524;2023-05-16T13:01:00;8.00;;;2.60;;
69419;SDS011;56612;52.030;113.524;2023-05-16T13:04:03;8.17;;;2.97;;
69419;SDS011;56612;52.030;113.524;2023-05-16T13:07:08;10.80;;;2.92;;
69419;SDS011;56612;52.030;113.524;2023-05-16T13:10:11;8.25;;;2.10;;
69419;SDS011;56612;52.030;113.524;2023-05-16T13:13:14;10.95;;;2.28;;
69419;SDS011;56612;52.030;113.524;2023-05-16T13:16:37;10.03;;;2.20;;
69419;SDS011;56612;52.030;113.524;2023-05-16T13:19:41;7.43;;;2.10;;
69419;SDS011;56612;52.030;113.524;2023-05-16T13:22:44;7.03;;;2.40;;
69419;SDS011;56612;52.030;113.524;2023-05-16T13:25:49;15.93;;;2.40;;
69419;SDS011;56612;52.030;113.524;2023-05-16T13:28:54;5.60;;;1.73;;
69419;SDS011;56612;52.030;113.524;2023-05-16T13:31:57;8.00;;;1.97;;
69419;SDS011;56612;52.030;113.524;2023-05-16T13:35:05;5.60;;;2.03;;
69419;SDS011;56612;52.030;113.524;2023-05-16T13:38:09;9.90;;;2.40;;
69419;SDS011;56612;52.030;113.524;2023-05-16T13:41:12;7.30;;;1.70;;
69419;SDS011;56612;52.030;113.524;2023-05-16T13:44:15;8.35;;;1.92;;
69419;SDS011;56612;52.030;113.524;2023-05-16T13:47:20;10.80;;;2.37;;
69419;SDS011;56612;52.030;113.524;2023-05-16T13:50:24;9.67;;;2.40;;
69419;SDS011;56612;52.030;113.524;2023-05-16T13:53:34;8.50;;;2.38;;
69419;SDS011;56612;52.030;113.524;2023-05-16T13:56:38;8.25;;;2.17;;
69419;SDS011;56612;52.030;113.524;2023-05-16T13:59:41;9.98;;;3.47;;
69419;SDS011;56612;52.030;113.524;2023-05-16T14:02:49;7.47;;;2.77;;
69419;SDS011;56612;52.030;113.524;2023-05-16T14:05:53;8.03;;;2.43;;
69419;SDS011;56612;52.030;113.524;2023-05-16T14:08:57;6.78;;;2.28;;
69419;SDS011;56612;52.030;113.524;2023-05-16T14:12:00;18.80;;;8.52;;
69419;SDS011;56612;52.030;113.524;2023-05-16T14:15:07;9.18;;;2.75;;
69419;SDS011;56612;52.030;113.524;2023-05-16T14:18:11;10.53;;;2.83;;
69419;SDS011;56612;52.030;113.524;2023-05-16T14:21:15;6.87;;;3.00;;
69419;SDS011;56612;52.030;113.524;2023-05-16T14:24:19;9.25;;;3.22;;
69419;SDS011;56612;52.030;113.524;2023-05-16T14:27:25;6.50;;;2.40;;
69419;SDS011;56612;52.030;113.524;2023-05-16T14:30:28;7.30;;;2.70;;
69419;SDS011;56612;52.030;113.524;2023-05-16T14:33:33;6.83;;;2.53;;
69419;SDS011;56612;52.030;113.524;2023-05-16T14:36:37;8.80;;;2.63;;
69419;SDS011;56612;52.030;113.524;2023-05-16T14:39:41;9.55;;;2.90;;
69419;SDS011;56612;52.030;113.524;2023-05-16T14:42:47;9.52;;;2.45;;
69419;SDS011;56612;52.030;113.524;2023-05-16T14:45:52;8.32;;;2.90;;
69419;SDS011;56612;52.030;113.524;2023-05-16T14:48:55;10.43;;;3.40;;
69419;SDS011;56612;52.030;113.524;2023-05-16T14:51:58;7.90;;;3.40;;
69419;SDS011;56612;52.030;113.524;2023-05-16T14:55:02;10.63;;;2.95;;
69419;SDS011;56612;52.030;113.524;2023-05-16T14:58:07;9.18;;;2.95;;
69419;SDS011;56612;52.030;113.524;2023-05-16T15:01:11;13.73;;;4.65;;
69419;SDS011;56612;52.030;113.524;2023-05-16T15:04:15;11.10;;;3.63;;
69419;SDS011;56612;52.030;113.524;2023-05-16T15:07:19;14.27;;;4.30;;
69419;SDS011;56612;52.030;113.524;2023-05-16T15:10:23;12.18;;;3.53;;
69419;SDS011;56612;52.030;113.524;2023-05-16T15:13:27;11.93;;;3.45;;
69419;SDS011;56612;52.030;113.524;2023-05-16T15:16:31;9.27;;;3.28;;
69419;SDS011;56612;52.030;113.524;2023-05-16T15:19:34;8.17;;;2.90;;
69419;SDS011;56612;52.030;113.524;2023-05-16T15:22:38;11.13;;;3.20;;
69419;SDS011;56612;52.030;113.524;2023-05-16T15:25:42;8.85;;;3.13;;
69419;SDS011;56612;52.030;113.524;2023-05-16T15:28:47;12.52;;;3.33;;
69419;SDS011;56612;52.030;113.524;2023-05-16T15:31:50;12.82;;;3.30;;
69419;SDS011;56612;52.030;113.524;2023-05-16T15:34:54;10.33;;;3.03;;
69419;SDS011;56612;52.030;113.524;2023-05-16T15:37:58;9.43;;;2.70;;
69419;SDS011;56612;52.030;113.524;2023-05-16T15:41:01;10.18;;;2.70;;
69419;SDS011;56612;52.030;113.524;2023-05-16T15:44:27;7.72;;;2.40;;
69419;SDS011;56612;52.030;113.524;2023-05-16T15:47:31;8.20;;;2.35;;
69419;SDS011;56612;52.030;113.524;2023-05-16T15:50:35;5.37;;;2.20;;
69419;SDS011;56612;52.030;113.524;2023-05-16T15:53:39;9.67;;;2.53;;
69419;SDS011;56612;52.030;113.524;2023-05-16T15:56:43;7.13;;;2.20;;
69419;SDS011;56612;52.030;113.524;2023-05-16T15:59:47;5.97;;;2.17;;
69419;SDS011;56612;52.030;113.524;2023-05-16T16:02:51;8.05;;;2.30;;
69419;SDS011;56612;52.030;113.524;2023-05-16T16:05:55;6.63;;;2.40;;
69419;SDS011;56612;52.030;113.524;2023-05-16T16:08:58;4.77;;;1.67;;
69419;SDS011;56612;52.030;113.524;2023-05-16T16:12:02;4.65;;;1.67;;
69419;SDS011;56612;52.030;113.524;2023-05-16T16:15:07;4.03;;;1.52;;
69419;SDS011;56612;52.030;113.524;2023-05-16T16:18:12;5.22;;;2.13;;
69419;SDS011;56612;52.030;113.524;2023-05-16T16:21:15;6.07;;;1.90;;
69419;SDS011;56612;52.030;113.524;2023-05-16T16:24:20;4.57;;;1.60;;
69419;SDS011;56612;52.030;113.524;2023-05-16T16:27:23;6.32;;;2.03;;
69419;SDS011;56612;52.030;113.524;2023-05-16T16:30:27;5.15;;;1.88;;
69419;SDS011;56612;52.030;113.524;2023-05-16T16:33:31;4.57;;;1.38;;
69419;SDS011;56612;52.030;113.524;2023-05-16T16:36:36;5.17;;;1.40;;
69419;SDS011;56612;52.030;113.524;2023-05-16T16:39:39;5.50;;;1.50;;
69419;SDS011;56612;52.030;113.524;2023-05-16T16:42:43;4.47;;;1.40;;
69419;SDS011;56612;52.030;113.524;2023-05-16T16:45:47;3.30;;;1.30;;
69419;SDS011;56612;52.030;113.524;2023-05-16T16:48:51;4.05;;;1.20;;
69419;SDS011;56612;52.030;113.524;2023-05-16T16:51:56;4.93;;;1.37;;
69419;SDS011;56612;52.030;113.524;2023-05-16T16:55:00;3.07;;;1.00;;
69419;SDS011;56612;52.030;113.524;2023-05-16T16:58:03;3.90;;;1.50;;
69419;SDS011;56612;52.030;113.524;2023-05-16T17:01:07;6.15;;;1.23;;
69419;SDS011;56612;52.030;113.524;2023-05-16T17:04:11;3.47;;;1.50;;
69419;SDS011;56612;52.030;113.524;2023-05-16T17:07:15;4.27;;;1.20;;
69419;SDS011;56612;52.030;113.524;2023-05-16T17:10:18;4.83;;;1.30;;
69419;SDS011;56612;52.030;113.524;2023-05-16T17:13:23;3.33;;;1.10;;
69419;SDS011;56612;52.030;113.524;2023-05-16T17:16:36;2.95;;;0.88;;
69419;SDS011;56612;52.030;113.524;2023-05-16T17:19:40;3.45;;;0.95;;
69419;SDS011;56612;52.030;113.524;2023-05-16T17:22:45;3.70;;;1.10;;
69419;SDS011;56612;52.030;113.524;2023-05-16T17:25:50;4.20;;;1.33;;
69419;SDS011;56612;52.030;113.524;2023-05-16T17:28:53;3.67;;;1.20;;
69419;SDS011;56612;52.030;113.524;2023-05-16T17:32:03;4.43;;;1.30;;
69419;SDS011;56612;52.030;113.524;2023-05-16T17:35:07;3.08;;;1.20;;
69419;SDS011;56612;52.030;113.524;2023-05-16T17:38:12;3.87;;;1.50;;
69419;SDS011;56612;52.030;113.524;2023-05-16T17:41:16;5.60;;;1.60;;
69419;SDS011;56612;52.030;113.524;2023-05-16T17:44:21;5.55;;;1.58;;
69419;SDS011;56612;52.030;113.524;2023-05-16T17:47:25;4.28;;;1.10;;
69419;SDS011;56612;52.030;113.524;2023-05-16T17:50:29;4.03;;;1.45;;
69419;SDS011;56612;52.030;113.524;2023-05-16T17:53:33;3.87;;;1.43;;
69419;SDS011;56612;52.030;113.524;2023-05-16T17:56:37;4.30;;;1.47;;
69419;SDS011;56612;52.030;113.524;2023-05-16T17:59:41;4.95;;;1.35;;
69419;SDS011;56612;52.030;113.524;2023-05-16T18:02:44;5.80;;;2.22;;
69419;SDS011;56612;52.030;113.524;2023-05-16T18:05:48;10.05;;;2.60;;
69419;SDS011;56612;52.030;113.524;2023-05-16T18:08:53;5.77;;;1.93;;
69419;SDS011;56612;52.030;113.524;2023-05-16T18:11:57;4.30;;;2.20;;
69419;SDS011;56612;52.030;113.524;2023-05-16T18:15:03;4.47;;;1.90;;
69419;SDS011;56612;52.030;113.524;2023-05-16T18:18:07;4.30;;;1.80;;